createdAt,value
2023-04-08T00:03:13.742Z,3.47
2023-04-08T00:08:23.651Z,3.83
2023-04-08T00:13:31.749Z,3.33
2023-04-08T00:18:38.212Z,3.63
2023-04-08T00:23:43.599Z,3.83
2023-04-08T00:28:47.100Z,4.17
2023-04-08T00:33:53.576Z,4.00
2023-04-08T00:38:57.759Z,4.20
2023-04-08T00:44:01.716Z,3.70
2023-04-08T00:49:08.248Z,3.50
2023-04-08T00:54:12.025Z,3.67
2023-04-08T00:59:15.865Z,3.90
2023-04-08T01:04:30.892Z,3.90
2023-04-08T01:09:44.155Z,4.70
2023-04-08T01:14:50.489Z,4.43
2023-04-08T01:19:57.615Z,4.47
2023-04-08T01:25:08.104Z,4.50
2023-04-08T01:30:15.585Z,4.47
2023-04-08T01:35:25.546Z,4.40
2023-04-08T01:40:28.992Z,4.33
2023-04-08T01:45:33.884Z,3.57
2023-04-08T01:50:38.625Z,3.53
2023-04-08T01:55:43.879Z,3.37
2023-04-08T02:00:49.674Z,3.60
2023-04-08T02:05:52.973Z,3.97
2023-04-08T02:10:56.412Z,4.10
2023-04-08T02:16:08.290Z,4.30
2023-04-08T02:21:15.883Z,4.10
2023-04-08T02:26:20.255Z,4.23
2023-04-08T02:31:28.070Z,5.27
2023-04-08T02:36:34.662Z,4.83
2023-04-08T02:41:38.026Z,4.53
2023-04-08T02:46:42.914Z,5.00
2023-04-08T02:51:46.458Z,5.03
2023-04-08T02:56:49.983Z,5.20
2023-04-08T03:01:55.021Z,6.17
2023-04-08T03:06:58.600Z,5.53
2023-04-08T03:12:02.046Z,5.43
2023-04-08T03:17:06.899Z,6.40
2023-04-08T03:22:11.309Z,6.13
2023-04-08T03:27:14.598Z,6.10
2023-04-08T03:32:19.403Z,6.03
2023-04-08T03:37:23.161Z,6.30
2023-04-08T03:42:26.461Z,5.70
2023-04-08T03:47:31.888Z,6.20
2023-04-08T03:52:36.050Z,5.70
2023-04-08T03:57:39.301Z,6.17
2023-04-08T04:02:44.002Z,5.73
2023-04-08T04:07:47.561Z,5.83
2023-04-08T04:12:51.805Z,5.70
2023-04-08T04:17:56.676Z,5.53
2023-04-08T04:23:00.452Z,5.20
2023-04-08T04:28:04.354Z,5.43
2023-04-08T04:33:11.354Z,5.33
2023-04-08T04:38:15.001Z,5.30
2023-04-08T04:43:18.458Z,5.50
2023-04-08T04:48:24.386Z,5.00
2023-04-08T04:53:28.379Z,4.73
2023-04-08T04:58:32.703Z,4.90
2023-04-08T05:03:39.692Z,5.00
2023-04-08T05:08:42.954Z,5.07
2023-04-08T05:13:46.635Z,4.70
2023-04-08T05:18:51.736Z,4.67
2023-04-08T05:23:55.480Z,4.57
2023-04-08T05:28:59.066Z,4.07
2023-04-08T05:34:04.061Z,4.87
2023-04-08T05:39:07.326Z,4.20
2023-04-08T05:44:10.578Z,4.43
2023-04-08T05:49:15.820Z,4.83
2023-04-08T05:54:19.082Z,4.90
2023-04-08T05:59:22.551Z,4.63
2023-04-08T06:04:27.701Z,4.57
2023-04-08T06:09:31.019Z,4.50
2023-04-08T06:14:34.233Z,5.20
2023-04-08T06:19:38.958Z,5.07
2023-04-08T06:24:42.563Z,5.40
2023-04-08T06:29:50.975Z,5.00
2023-04-08T06:34:55.790Z,6.10
2023-04-08T06:40:00.404Z,6.00
2023-04-08T06:45:12.433Z,6.90
2023-04-08T06:50:20.107Z,7.97
2023-04-08T06:55:23.517Z,8.57
2023-04-08T07:00:29.768Z,7.83
2023-04-08T07:05:37.110Z,7.73
2023-04-08T07:10:40.420Z,8.97
2023-04-08T07:15:43.814Z,9.63
2023-04-08T07:20:53.281Z,9.90
2023-04-08T07:25:57.132Z,10.67
2023-04-08T07:31:11.025Z,10.40
2023-04-08T07:36:18.650Z,11.57
2023-04-08T07:41:22.313Z,11.43
2023-04-08T07:46:25.799Z,11.93
2023-04-08T07:51:30.554Z,11.63
2023-04-08T07:56:33.708Z,11.87
2023-04-08T08:01:37.125Z,12.30
2023-04-08T08:06:41.678Z,12.73
2023-04-08T08:11:52.859Z,12.87
2023-04-08T08:16:57.318Z,13.03
2023-04-08T08:22:02.254Z,13.67
2023-04-08T08:27:07.188Z,13.70
2023-04-08T08:32:16.677Z,14.23
2023-04-08T08:37:21.417Z,13.47
2023-04-08T08:42:25.916Z,14.63
2023-04-08T08:47:29.578Z,13.87
2023-04-08T08:52:34.897Z,15.90
2023-04-08T08:57:38.479Z,13.97
2023-04-08T09:02:42.278Z,15.80
2023-04-08T09:07:47.119Z,15.40
2023-04-08T09:12:57.694Z,15.13
2023-04-08T09:18:01.187Z,16.27
2023-04-08T09:23:06.146Z,15.37
2023-04-08T09:28:21.194Z,15.93
2023-04-08T09:33:31.953Z,15.63
2023-04-08T09:38:36.863Z,15.87
2023-04-08T09:43:49.270Z,17.83
2023-04-08T09:49:03.669Z,18.27
2023-04-08T09:54:15.817Z,19.47
2023-04-08T09:59:21.933Z,17.67
2023-04-08T10:04:31.006Z,21.40
2023-04-08T10:09:36.398Z,17.60
2023-04-08T10:14:40.872Z,17.03
2023-04-08T10:19:44.691Z,17.40
2023-04-08T10:25:22.046Z,17.77
2023-04-08T10:30:43.454Z,17.73
2023-04-08T10:35:51.418Z,17.93
2023-04-08T10:41:02.344Z,16.97
2023-04-08T10:46:07.456Z,18.10
2023-04-08T10:51:17.324Z,17.23
2023-04-08T10:56:22.073Z,17.10
2023-04-08T11:01:38.924Z,16.97
2023-04-08T11:06:44.713Z,17.00
2023-04-08T11:11:48.800Z,15.37
2023-04-08T11:16:53.988Z,16.53
2023-04-08T11:22:00.706Z,16.17
2023-04-08T11:27:04.854Z,15.17
2023-04-08T11:32:12.938Z,13.63
2023-04-08T11:37:16.719Z,12.23
2023-04-08T11:42:29.979Z,12.37
2023-04-08T11:47:35.439Z,13.13
2023-04-08T11:52:46.047Z,13.67
2023-04-08T11:57:54.835Z,13.80
2023-04-08T12:03:00.698Z,14.23
2023-04-08T12:08:07.057Z,13.80
2023-04-08T12:13:13.930Z,13.60
2023-04-08T12:18:21.098Z,13.03
2023-04-08T12:23:24.881Z,11.90
2023-04-08T12:28:31.949Z,11.80
2023-04-08T12:33:36.842Z,11.40
2023-04-08T12:38:40.090Z,11.50
2023-04-08T12:43:43.297Z,10.43
2023-04-08T12:48:59.950Z,10.80
2023-04-08T12:54:09.251Z,10.23
2023-04-08T12:59:13.347Z,12.00
2023-04-08T13:04:21.073Z,13.40
2023-04-08T13:09:24.333Z,13.60
2023-04-08T13:14:33.778Z,13.17
2023-04-08T13:19:38.484Z,12.23
2023-04-08T13:24:44.205Z,12.23
2023-04-08T13:29:47.563Z,11.27
2023-04-08T13:34:56.408Z,12.05
2023-04-08T13:40:01.885Z,11.27
2023-04-08T13:45:10.248Z,11.70
2023-04-08T13:50:15.834Z,10.90
2023-04-08T13:55:21.085Z,11.13
2023-04-08T14:00:27.266Z,12.43
2023-04-08T14:05:33.506Z,11.13
2023-04-08T14:10:37.154Z,10.67
2023-04-08T14:15:40.839Z,9.97
2023-04-08T14:20:45.848Z,9.50
2023-04-08T14:25:49.190Z,9.27
2023-04-08T14:30:54.027Z,9.70
2023-04-08T14:35:59.156Z,9.63
2023-04-08T14:41:02.750Z,9.47
2023-04-08T14:46:06.362Z,8.63
2023-04-08T14:51:11.551Z,10.00
2023-04-08T14:56:15.601Z,9.70
2023-04-08T15:01:18.917Z,9.67
2023-04-08T15:06:23.792Z,8.73
2023-04-08T15:11:27.032Z,8.90
2023-04-08T15:16:30.698Z,8.93
2023-04-08T15:21:35.640Z,8.83
2023-04-08T15:26:39.020Z,9.07
2023-04-08T15:31:42.782Z,9.17
2023-04-08T15:36:47.839Z,8.67
2023-04-08T15:41:53.280Z,9.60
2023-04-08T15:46:56.658Z,9.50
2023-04-08T15:52:08.578Z,8.20
2023-04-08T15:57:16.336Z,9.00
2023-04-08T16:02:20.127Z,8.53
2023-04-08T16:07:24.834Z,9.17
2023-04-08T16:12:29.006Z,8.87
2023-04-08T16:17:32.488Z,9.33
2023-04-08T16:22:37.460Z,9.67
2023-04-08T16:27:40.843Z,8.93
2023-04-08T16:32:44.118Z,9.50
2023-04-08T16:37:48.851Z,10.00
2023-04-08T16:42:52.505Z,10.00
2023-04-08T16:47:55.982Z,9.83
2023-04-08T16:53:00.824Z,9.97
2023-04-08T16:58:05.049Z,9.60
2023-04-08T17:03:08.450Z,9.33
2023-04-08T17:08:13.424Z,8.97
2023-04-08T17:13:16.808Z,9.80
2023-04-08T17:18:20.167Z,9.60
2023-04-08T17:23:25.458Z,9.93
2023-04-08T17:28:29.290Z,10.13
2023-04-08T17:33:42.378Z,11.63
2023-04-08T17:38:49.547Z,12.03
2023-04-08T17:43:53.758Z,10.53
2023-04-08T17:48:57.934Z,10.37
2023-04-08T17:54:02.724Z,11.53
2023-04-08T17:59:05.998Z,11.30
2023-04-08T18:04:11.078Z,12.43
2023-04-08T18:09:17.128Z,11.00
2023-04-08T18:14:26.388Z,10.87
2023-04-08T18:19:36.901Z,11.83
2023-04-08T18:24:42.861Z,11.07
2023-04-08T18:29:47.803Z,11.43
2023-04-08T18:34:52.550Z,11.23
2023-04-08T18:40:02.519Z,11.57
2023-04-08T18:45:06.753Z,10.27
2023-04-08T18:50:11.722Z,12.97
2023-04-08T18:55:17.112Z,14.13
2023-04-08T19:00:20.317Z,13.70
2023-04-08T19:05:23.992Z,11.53
2023-04-08T19:10:31.073Z,11.30
2023-04-08T19:15:37.114Z,11.73
2023-04-08T19:20:40.591Z,12.57
2023-04-08T19:25:46.415Z,11.33
2023-04-08T19:30:51.029Z,10.67
2023-04-08T19:35:57.626Z,10.40
2023-04-08T19:41:06.836Z,12.73
2023-04-08T19:46:14.614Z,11.83
2023-04-08T19:51:38.928Z,10.77
2023-04-08T19:56:44.191Z,11.83
2023-04-08T20:01:48.772Z,10.80
2023-04-08T20:06:52.224Z,10.80
2023-04-08T20:12:03.554Z,10.77
2023-04-08T20:17:06.869Z,11.07
2023-04-08T20:22:10.865Z,11.90
2023-04-08T20:27:16.802Z,13.20
2023-04-08T20:32:20.216Z,11.83
2023-04-08T20:37:23.559Z,12.60
2023-04-08T20:42:29.090Z,12.43
2023-04-08T20:47:33.561Z,13.70
2023-04-08T20:52:36.959Z,13.57
2023-04-08T20:57:41.913Z,14.10
2023-04-08T21:02:45.454Z,13.33
2023-04-08T21:07:48.792Z,12.47
2023-04-08T21:12:54.076Z,12.17
2023-04-08T21:17:57.646Z,14.13
2023-04-08T21:23:00.976Z,14.53
2023-04-08T21:28:05.643Z,15.07
2023-04-08T21:33:09.606Z,18.60
2023-04-08T21:38:13.054Z,18.13
2023-04-08T21:43:17.636Z,18.50
2023-04-08T21:48:21.432Z,18.97
2023-04-08T21:53:24.664Z,18.43
2023-04-08T21:58:29.359Z,19.30
2023-04-08T22:03:32.660Z,19.77
2023-04-08T22:08:36.011Z,18.40
2023-04-08T22:13:40.578Z,18.80
2023-04-08T22:18:44.080Z,18.97
2023-04-08T22:23:47.428Z,19.10
2023-04-08T22:28:52.233Z,18.57
2023-04-08T22:33:55.610Z,18.97
2023-04-08T22:38:58.846Z,18.70
2023-04-08T22:44:03.675Z,19.90
2023-04-08T22:49:09.950Z,19.27
2023-04-08T22:54:13.552Z,20.00
2023-04-08T22:59:18.283Z,19.03
2023-04-08T23:04:21.720Z,19.20
2023-04-08T23:09:26.745Z,21.03
2023-04-08T23:14:31.404Z,21.43
2023-04-08T23:19:34.828Z,20.80
2023-04-08T23:24:38.120Z,20.57
2023-04-08T23:29:42.847Z,20.70
2023-04-08T23:34:46.042Z,19.73
2023-04-08T23:39:49.166Z,20.17
2023-04-08T23:44:54.209Z,21.23
2023-04-08T23:49:57.882Z,21.17
2023-04-08T23:55:01.282Z,21.80
